SBLP

Details ICAO SBLP (LAZ)
Name BOM JESUS DA LAPA
Region Brazil
Timezone America/Bahia (UTC-3.0)
Plans Departing 2
Arriving 4
Stats Elevation 1,454 ft / 443 m (AMSL)
Location -13.262085° -43.408113°
Runways 1
Magnetic Variation 22.802° W
Sunrise 2017-12-15 08:23:12 UTC / 2017-12-15 05:23:12 Local
Sunset 2017-12-15 21:17:16 UTC / 2017-12-15 18:17:16 Local
Advertisement - Login to hide

Runways

ID Width Length Bearing (true) Bearing (mag) Surface Threshold Offset Overrun Length
18 98 ft / 30 m 3,984 ft / 1,214 m 159.73° 182.53° Asphalt 0 ft / 0 m 0 ft / 0 m
36 98 ft / 30 m 3,984 ft / 1,214 m 339.73° 2.53° Asphalt 0 ft / 0 m 0 ft / 0 m

Map

Weather


0- 5 10 15 20 25 30 35+ Temperature / ° C

Clouds and Precipitation
Forecast for 2017-12-15 06:00 UTC. Updated 2 hours ago

Ground ~20,000 ft ~40,000 ft Winds

METAR

Not found

TAF

TAF SBLP 142200Z 1500/1512 33005KT 7000 BKN020 TX27/1500Z TN24/1511Z PROB40 1500/1502 6000 TSRA BKN020 FEW030CB RMK PEI

Frequencies

Tower 125.90 MHz LAPA RDO
Warning: Do not use this data for real-world aviation or navigation. No guarantee of current accuracy is given.